sensor_id;sensor_type;location;lat;lon;timestamp;P1;P2;P0
45112;PMS5003;30873;53.908;27.576;2023-07-24T00:00:58;14.6;13.5;9.7
45112;PMS5003;30873;53.908;27.576;2023-07-24T00:05:40;15.8;13.8;9.9
45112;PMS5003;30873;53.908;27.576;2023-07-24T00:10:06;16.1;14.1;10.1
45112;PMS5003;30873;53.908;27.576;2023-07-24T00:15:12;17.9;15.9;10.5
45112;PMS5003;30873;53.908;27.576;2023-07-24T00:20:58;16.7;14.3;10.5
45112;PMS5003;30873;53.908;27.576;2023-07-24T00:25:44;15.7;13.9;9.6
45112;PMS5003;30873;53.908;27.576;2023-07-24T00:30:28;15.9;14.2;10.2
45112;PMS5003;30873;53.908;27.576;2023-07-24T00:35:58;17;15;10
45112;PMS5003;30873;53.908;27.576;2023-07-24T00:40:58;16;14.3;9.6
45112;PMS5003;30873;53.908;27.576;2023-07-24T00:45:14;14;12.8;9.2
45112;PMS5003;30873;53.908;27.576;2023-07-24T00:50:36;13.6;13.1;9
45112;PMS5003;30873;53.908;27.576;2023-07-24T00:55:22;14.7;12.8;9
45112;PMS5003;30873;53.908;27.576;2023-07-24T01:00:30;15.6;14.3;10.3
45112;PMS5003;30873;53.908;27.576;2023-07-24T01:05:06;17.1;13.9;9.3
45112;PMS5003;30873;53.908;27.576;2023-07-24T01:10:24;13.1;11.9;9
45112;PMS5003;30873;53.908;27.576;2023-07-24T01:15:13;13.4;12.5;9
45112;PMS5003;30873;53.908;27.576;2023-07-24T01:20:12;14.2;13.4;9.5
45112;PMS5003;30873;53.908;27.576;2023-07-24T01:25:27;15.1;12.6;9.2
45112;PMS5003;30873;53.908;27.576;2023-07-24T01:30:58;13.5;13.1;8.9
45112;PMS5003;30873;53.908;27.576;2023-07-24T01:35:44;14.5;12.7;8.8
45112;PMS5003;30873;53.908;27.576;2023-07-24T01:40:58;15.5;13;9.1
45112;PMS5003;30873;53.908;27.576;2023-07-24T01:45:24;14.1;12.4;9.1
45112;PMS5003;30873;53.908;27.576;2023-07-24T01:50:24;14.9;13.3;9.4
45112;PMS5003;30873;53.908;27.576;2023-07-24T01:55:12;15;13.1;9.4
45112;PMS5003;30873;53.908;27.576;2023-07-24T02:00:12;15.2;13.7;9.8
45112;PMS5003;30873;53.908;27.576;2023-07-24T02:05:28;13.8;12.9;9.1
45112;PMS5003;30873;53.908;27.576;2023-07-24T02:10:42;13.8;12.8;9.5
45112;PMS5003;30873;53.908;27.576;2023-07-24T02:15:56;16.2;13.9;9.6
45112;PMS5003;30873;53.908;27.576;2023-07-24T02:20:12;15.5;14;9.7
45112;PMS5003;30873;53.908;27.576;2023-07-24T02:25:12;14.7;13.6;9.5
45112;PMS5003;30873;53.908;27.576;2023-07-24T02:30:56;16.5;14.3;9.7
45112;PMS5003;30873;53.908;27.576;2023-07-24T02:35:18;16.2;14.3;9.5
45112;PMS5003;30873;53.908;27.576;2023-07-24T02:40:44;16;14.2;10.5
45112;PMS5003;30873;53.908;27.576;2023-07-24T02:45:42;14.5;13.7;9.7
45112;PMS5003;30873;53.908;27.576;2023-07-24T02:50:42;15.9;14.2;10
45112;PMS5003;30873;53.908;27.576;2023-07-24T02:55:06;15.8;14.5;9.6
45112;PMS5003;30873;53.908;27.576;2023-07-24T03:00:42;17.6;15.9;10.8
45112;PMS5003;30873;53.908;27.576;2023-07-24T03:05:58;17.3;15.8;10.7
45112;PMS5003;30873;53.908;27.576;2023-07-24T03:10:58;18.5;16.8;11.5
45112;PMS5003;30873;53.908;27.576;2023-07-24T03:15:28;18.6;16.1;11.3
45112;PMS5003;30873;53.908;27.576;2023-07-24T03:20:24;17.7;16.3;11
45112;PMS5003;30873;53.908;27.576;2023-07-24T03:25:58;17.6;16.7;11.3
45112;PMS5003;30873;53.908;27.576;2023-07-24T03:30:22;18;16.1;10.4
45112;PMS5003;30873;53.908;27.576;2023-07-24T03:35:06;18.5;17;10.7
45112;PMS5003;30873;53.908;27.576;2023-07-24T03:40:40;19.3;17.2;11.8
45112;PMS5003;30873;53.908;27.576;2023-07-24T03:45:26;17.5;16.2;11
45112;PMS5003;30873;53.908;27.576;2023-07-24T03:50:58;18.5;17;10.8
45112;PMS5003;30873;53.908;27.576;2023-07-24T03:55:24;19.3;17.3;11.5
45112;PMS5003;30873;53.908;27.576;2023-07-24T04:00:12;18.8;17.3;11.7
45112;PMS5003;30873;53.908;27.576;2023-07-24T04:05:28;18.6;16.4;11
45112;PMS5003;30873;53.908;27.576;2023-07-24T04:10:58;19.2;16.8;11.1
45112;PMS5003;30873;53.908;27.576;2023-07-24T04:15:26;19.3;18.1;11.9
45112;PMS5003;30873;53.908;27.576;2023-07-24T04:20:58;23.4;21.4;15.4
45112;PMS5003;30873;53.908;27.576;2023-07-24T04:25:58;21.5;20.2;13.4
45112;PMS5003;30873;53.908;27.576;2023-07-24T04:30:26;21.1;19.1;12.9
45112;PMS5003;30873;53.908;27.576;2023-07-24T04:35:06;22.7;20.5;14
45112;PMS5003;30873;53.908;27.576;2023-07-24T04:40:12;22.9;20.4;14.2
45112;PMS5003;30873;53.908;27.576;2023-07-24T04:45:58;22.7;20.1;14.7
45112;PMS5003;30873;53.908;27.576;2023-07-24T04:50:44;28.6;25.6;19
45112;PMS5003;30873;53.908;27.576;2023-07-24T04:55:28;43.9;38.3;28.2
45112;PMS5003;30873;53.908;27.576;2023-07-24T05:01:01;43.6;38.5;27.9
45112;PMS5003;30873;53.908;27.576;2023-07-24T05:05:58;37.9;33.5;24.1
45112;PMS5003;30873;53.908;27.576;2023-07-24T05:10:06;43.8;37.9;27.3
45112;PMS5003;30873;53.908;27.576;2023-07-24T05:15:26;50.7;43.5;33.9
45112;PMS5003;30873;53.908;27.576;2023-07-24T05:20:42;42.1;38.3;29.1
45112;PMS5003;30873;53.908;27.576;2023-07-24T05:25:24;38.4;33.8;24.6
45112;PMS5003;30873;53.908;27.576;2023-07-24T05:30:28;30.6;27.4;19.3
45112;PMS5003;30873;53.908;27.576;2023-07-24T05:35:18;27.2;24.8;16.6
45112;PMS5003;30873;53.908;27.576;2023-07-24T05:40:12;28.1;25.8;17.3
45112;PMS5003;30873;53.908;27.576;2023-07-24T05:45:26;28.8;26.5;17.7
45112;PMS5003;30873;53.908;27.576;2023-07-24T05:50:40;29.7;27.2;18.9
45112;PMS5003;30873;53.908;27.576;2023-07-24T05:55:56;32.5;29.3;19.8
45112;PMS5003;30873;53.908;27.576;2023-07-24T06:00:42;34.3;29.9;19.9
45112;PMS5003;30873;53.908;27.576;2023-07-24T06:05:56;33;28.6;19
45112;PMS5003;30873;53.908;27.576;2023-07-24T06:10:24;27.9;25.9;17.7
45112;PMS5003;30873;53.908;27.576;2023-07-24T06:15:06;29.1;26;17.6
45112;PMS5003;30873;53.908;27.576;2023-07-24T06:20:12;23.7;21.6;15.2
45112;PMS5003;30873;53.908;27.576;2023-07-24T06:25:38;21.9;20.1;14.6
45112;PMS5003;30873;53.908;27.576;2023-07-24T06:30:22;22.6;21.2;14.3
45112;PMS5003;30873;53.908;27.576;2023-07-24T06:35:56;23.9;21.8;14.3
45112;PMS5003;30873;53.908;27.576;2023-07-24T06:40:56;26.4;23.9;15.9
45112;PMS5003;30873;53.908;27.576;2023-07-24T06:45:24;25.6;22.5;16.1
45112;PMS5003;30873;53.908;27.576;2023-07-24T06:50:30;24.5;21.6;15.6
45112;PMS5003;30873;53.908;27.576;2023-07-24T06:55:56;26.3;23.8;16.7
45112;PMS5003;30873;53.908;27.576;2023-07-24T07:00:16;27.2;25.4;16.8
45112;PMS5003;30873;53.908;27.576;2023-07-24T07:05:06;29.7;26.9;18.4
45112;PMS5003;30873;53.908;27.576;2023-07-24T07:10:42;33;30.7;20.8
45112;PMS5003;30873;53.908;27.576;2023-07-24T07:15:42;31.5;28;19.2
45112;PMS5003;30873;53.908;27.576;2023-07-24T07:20:24;28;26.2;17.3
45112;PMS5003;30873;53.908;27.576;2023-07-24T07:25:12;30.9;28.3;18.6
45112;PMS5003;30873;53.908;27.576;2023-07-24T07:30:56;28.6;25.8;18
45112;PMS5003;30873;53.908;27.576;2023-07-24T07:35:56;25.9;24.3;16
45112;PMS5003;30873;53.908;27.576;2023-07-24T07:40:28;24.7;23;15.5
45112;PMS5003;30873;53.908;27.576;2023-07-24T07:45:18;24;20.8;14.1
45112;PMS5003;30873;53.908;27.576;2023-07-24T07:50:58;23.3;20.9;14.2
45112;PMS5003;30873;53.908;27.576;2023-07-24T07:55:28;22.9;21.9;14.3
45112;PMS5003;30873;53.908;27.576;2023-07-24T08:01:02;21.3;19;13.2
45112;PMS5003;30873;53.908;27.576;2023-07-24T08:05:40;21.7;20.1;13.3
45112;PMS5003;30873;53.908;27.576;2023-07-24T08:10:26;21.9;20.6;13.5
45112;PMS5003;30873;53.908;27.576;2023-07-24T08:15:42;18.7;18.1;12.7
45112;PMS5003;30873;53.908;27.576;2023-07-24T08:20:56;20.1;19.1;13.7
45112;PMS5003;30873;53.908;27.576;2023-07-24T08:25:12;20.4;18.8;13.2
45112;PMS5003;30873;53.908;27.576;2023-07-24T08:30:28;19.8;18.4;12.9
45112;PMS5003;30873;53.908;27.576;2023-07-24T08:35:42;20.1;18.8;12.7
45112;PMS5003;30873;53.908;27.576;2023-07-24T08:40:07;19.3;18.2;12.5
45112;PMS5003;30873;53.908;27.576;2023-07-24T08:45:57;20.3;18.7;13
45112;PMS5003;30873;53.908;27.576;2023-07-24T08:50:57;18.9;17.6;12.3
45112;PMS5003;30873;53.908;27.576;2023-07-24T08:55:38;18.3;17.3;12.6
45112;PMS5003;30873;53.908;27.576;2023-07-24T09:00:24;17.9;15.9;11.1
45112;PMS5003;30873;53.908;27.576;2023-07-24T09:05:12;17.4;16.6;11.8
45112;PMS5003;30873;53.908;27.576;2023-07-24T09:10:59;15.9;15.2;11.2
45112;PMS5003;30873;53.908;27.576;2023-07-24T09:15:43;18.1;16.9;11.5
45112;PMS5003;30873;53.908;27.576;2023-07-24T09:20:07;18.5;17.1;11.9
45112;PMS5003;30873;53.908;27.576;2023-07-24T09:25:58;17;15.5;11.4
45112;PMS5003;30873;53.908;27.576;2023-07-24T09:30:59;17.8;17;11.8
45112;PMS5003;30873;53.908;27.576;2023-07-24T09:35:15;19;17;12.5
45112;PMS5003;30873;53.908;27.576;2023-07-24T09:40:45;17.6;16.6;12
45112;PMS5003;30873;53.908;27.576;2023-07-24T09:45:14;16.9;16;11.4
45112;PMS5003;30873;53.908;27.576;2023-07-24T09:50:45;18.1;16.9;11.6
45112;PMS5003;30873;53.908;27.576;2023-07-24T09:55:15;17.6;17.2;12.2
45112;PMS5003;30873;53.908;27.576;2023-07-24T10:00:18;18.9;17.1;12.5
45112;PMS5003;30873;53.908;27.576;2023-07-24T10:05:12;18;16.9;12.3
45112;PMS5003;30873;53.908;27.576;2023-07-24T10:10:06;18.5;17.3;12.3
45112;PMS5003;30873;53.908;27.576;2023-07-24T10:15:07;17.7;16.3;12.4
45112;PMS5003;30873;53.908;27.576;2023-07-24T10:21:00;17.8;16.4;11.7
45112;PMS5003;30873;53.908;27.576;2023-07-24T10:25:45;17.7;16.9;12
45112;PMS5003;30873;53.908;27.576;2023-07-24T10:30:40;17.1;16.1;12
45112;PMS5003;30873;53.908;27.576;2023-07-24T10:36:06;17.2;16.7;12
45112;PMS5003;30873;53.908;27.576;2023-07-24T10:40:34;17.4;16.7;11.8
45112;PMS5003;30873;53.908;27.576;2023-07-24T10:45:41;16.7;16;11.8
45112;PMS5003;30873;53.908;27.576;2023-07-24T10:50:35;22.1;21;15.9
45112;PMS5003;30873;53.908;27.576;2023-07-24T10:55:42;17.7;16.9;12.8
45112;PMS5003;30873;53.908;27.576;2023-07-24T11:00:43;17.5;16.4;11.6
45112;PMS5003;30873;53.908;27.576;2023-07-24T11:05:58;16.8;15.8;11.6
45112;PMS5003;30873;53.908;27.576;2023-07-24T11:10:19;16.8;16.1;11.8
45112;PMS5003;30873;53.908;27.576;2023-07-24T11:15:07;17.9;16.9;12.7
45112;PMS5003;30873;53.908;27.576;2023-07-24T11:20:58;18.2;17.7;13.4
45112;PMS5003;30873;53.908;27.576;2023-07-24T11:25:26;18;17;12.6
45112;PMS5003;30873;53.908;27.576;2023-07-24T11:30:12;21.2;20.3;15.5
45112;PMS5003;30873;53.908;27.576;2023-07-24T11:35:42;23;21.1;15.8
45112;PMS5003;30873;53.908;27.576;2023-07-24T11:40:43;19.5;18.3;13.1
45112;PMS5003;30873;53.908;27.576;2023-07-24T11:45:12;20.4;19.7;14.5
45112;PMS5003;30873;53.908;27.576;2023-07-24T11:50:13;20.8;19.5;14.2
45112;PMS5003;30873;53.908;27.576;2023-07-24T11:56:00;19.3;17.6;12.7
45112;PMS5003;30873;53.908;27.576;2023-07-24T12:00:45;18.1;17.3;12.5
45112;PMS5003;30873;53.908;27.576;2023-07-24T12:06:00;18;17.2;12.9
45112;PMS5003;30873;53.908;27.576;2023-07-24T12:10:24;21.4;20.1;15.3
45112;PMS5003;30873;53.908;27.576;2023-07-24T12:15:58;21.4;20.2;15.3
45112;PMS5003;30873;53.908;27.576;2023-07-24T12:20:07;18.3;17.5;12.7
45112;PMS5003;30873;53.908;27.576;2023-07-24T12:26:00;18.2;17.8;12.9
45112;PMS5003;30873;53.908;27.576;2023-07-24T12:30:42;17.6;16.3;12
45112;PMS5003;30873;53.908;27.576;2023-07-24T12:35:44;18.1;16.7;12.3
45112;PMS5003;30873;53.908;27.576;2023-07-24T12:40:42;18.2;16.6;12.5
45112;PMS5003;30873;53.908;27.576;2023-07-24T12:45:40;17.6;16.5;12.2
45112;PMS5003;30873;53.908;27.576;2023-07-24T12:50:07;17.2;16.6;11.6
45112;PMS5003;30873;53.908;27.576;2023-07-24T12:55:12;16;15.4;11.2
45112;PMS5003;30873;53.908;27.576;2023-07-24T13:01:00;17.1;15.8;12
45112;PMS5003;30873;53.908;27.576;2023-07-24T13:05:44;16.3;15.8;12.1
45112;PMS5003;30873;53.908;27.576;2023-07-24T13:11:00;20;19.1;14.8
45112;PMS5003;30873;53.908;27.576;2023-07-24T13:15:58;15.2;13.4;9.8
45112;PMS5003;30873;53.908;27.576;2023-07-24T13:20:40;14.6;13.8;10.1
45112;PMS5003;30873;53.908;27.576;2023-07-24T13:25:18;15.7;14.4;10.7
45112;PMS5003;30873;53.908;27.576;2023-07-24T13:30:11;15.1;14.9;11.6
45112;PMS5003;30873;53.908;27.576;2023-07-24T13:35:58;13.6;12.9;9.9
45112;PMS5003;30873;53.908;27.576;2023-07-24T13:40:44;17.9;16.6;12.6
45112;PMS5003;30873;53.908;27.576;2023-07-24T13:45:44;15.5;14.3;10.2
45112;PMS5003;30873;53.908;27.576;2023-07-24T13:51:00;16.3;14.9;10.7
45112;PMS5003;30873;53.908;27.576;2023-07-24T13:56:01;15.4;14.2;10.5
45112;PMS5003;30873;53.908;27.576;2023-07-24T14:00:20;14.7;13.3;9.9
45112;PMS5003;30873;53.908;27.576;2023-07-24T14:05:26;13.6;13;9.7
45112;PMS5003;30873;53.908;27.576;2023-07-24T14:10:22;14.7;14;10.2
45112;PMS5003;30873;53.908;27.576;2023-07-24T14:15:45;14.1;13.3;9.8
45112;PMS5003;30873;53.908;27.576;2023-07-24T14:20:07;16.3;15.4;11.3
45112;PMS5003;30873;53.908;27.576;2023-07-24T14:25:27;20.7;19.5;15.2
45112;PMS5003;30873;53.908;27.576;2023-07-24T14:30:29;14.2;13.2;9.7
45112;PMS5003;30873;53.908;27.576;2023-07-24T14:35:12;18.2;16.8;12.3
45112;PMS5003;30873;53.908;27.576;2023-07-24T14:40:26;16;15.1;11.6
45112;PMS5003;30873;53.908;27.576;2023-07-24T14:46:00;15;14.4;11.2
45112;PMS5003;30873;53.908;27.576;2023-07-24T14:50:28;16.9;15.7;11.2
45112;PMS5003;30873;53.908;27.576;2023-07-24T14:56:00;16.2;15.1;10.4
45112;PMS5003;30873;53.908;27.576;2023-07-24T15:00:26;15.8;14.8;10.4
45112;PMS5003;30873;53.908;27.576;2023-07-24T15:05:07;11.1;10.3;7.5
45112;PMS5003;30873;53.908;27.576;2023-07-24T15:10:26;9.9;9.2;6.3
45112;PMS5003;30873;53.908;27.576;2023-07-24T15:15:27;11;9.9;6.9
45112;PMS5003;30873;53.908;27.576;2023-07-24T15:20:28;10.2;9.7;7.1
45112;PMS5003;30873;53.908;27.576;2023-07-24T15:25:44;9.6;8.2;5.8
45112;PMS5003;30873;53.908;27.576;2023-07-24T15:31:00;9.9;8.9;5.9
45112;PMS5003;30873;53.908;27.576;2023-07-24T15:35:20;10.2;9.6;6.6
45112;PMS5003;30873;53.908;27.576;2023-07-24T15:40:12;11.4;10.5;7.9
45112;PMS5003;30873;53.908;27.576;2023-07-24T15:46:01;16.2;15.8;12.7
45112;PMS5003;30873;53.908;27.576;2023-07-24T15:50:26;9.6;9.2;6.6
45112;PMS5003;30873;53.908;27.576;2023-07-24T15:55:23;12.8;12.5;9.5
45112;PMS5003;30873;53.908;27.576;2023-07-24T16:00:45;11;10.1;7.3
45112;PMS5003;30873;53.908;27.576;2023-07-24T16:05:44;9.8;9;6.3
45112;PMS5003;30873;53.908;27.576;2023-07-24T16:10:43;10.2;9.8;6.8
45112;PMS5003;30873;53.908;27.576;2023-07-24T16:15:07;10.4;9.6;6.9
45112;PMS5003;30873;53.908;27.576;2023-07-24T16:21:01;10.3;10.1;7.3
45112;PMS5003;30873;53.908;27.576;2023-07-24T16:25:45;14;12.9;8.8
45112;PMS5003;30873;53.908;27.576;2023-07-24T16:30:45;11;10.3;7.3
45112;PMS5003;30873;53.908;27.576;2023-07-24T16:35:07;8.6;8.1;5.8
45112;PMS5003;30873;53.908;27.576;2023-07-24T16:41:01;10.3;9.6;7.2
45112;PMS5003;30873;53.908;27.576;2023-07-24T16:45:13;9.1;8.5;6.6
45112;PMS5003;30873;53.908;27.576;2023-07-24T16:51:01;9.6;9;5.8
45112;PMS5003;30873;53.908;27.576;2023-07-24T16:55:43;9.1;8.6;6.5
45112;PMS5003;30873;53.908;27.576;2023-07-24T17:00:45;9.3;8.7;6.3
45112;PMS5003;30873;53.908;27.576;2023-07-24T17:05:45;10.1;9.5;6.8
45112;PMS5003;30873;53.908;27.576;2023-07-24T17:10:43;13.1;12.7;9.9
45112;PMS5003;30873;53.908;27.576;2023-07-24T17:15:41;9.5;8.8;5.9
45112;PMS5003;30873;53.908;27.576;2023-07-24T17:20:07;9.9;9;6.4
45112;PMS5003;30873;53.908;27.576;2023-07-24T17:26:01;10.6;9.9;6.7
45112;PMS5003;30873;53.908;27.576;2023-07-24T17:30:27;10.7;9.9;6.8
45112;PMS5003;30873;53.908;27.576;2023-07-24T17:36:01;10.1;9.6;6.4
45112;PMS5003;30873;53.908;27.576;2023-07-24T17:41:01;10.2;9.4;6.7
45112;PMS5003;30873;53.908;27.576;2023-07-24T17:45:43;10.6;9;6.3
45112;PMS5003;30873;53.908;27.576;2023-07-24T17:50:13;9.9;9.6;6.4
45112;PMS5003;30873;53.908;27.576;2023-07-24T17:55:07;13;12.2;8.5
45112;PMS5003;30873;53.908;27.576;2023-07-24T18:01:01;11.5;11.1;8
45112;PMS5003;30873;53.908;27.576;2023-07-24T18:05:43;11.7;10.8;7.3
45112;PMS5003;30873;53.908;27.576;2023-07-24T18:10:13;11;10;7.3
45112;PMS5003;30873;53.908;27.576;2023-07-24T18:16:01;12.2;11.1;7.6
45112;PMS5003;30873;53.908;27.576;2023-07-24T18:21:01;12.3;10.7;7.3
45112;PMS5003;30873;53.908;27.576;2023-07-24T18:25:27;12.9;12;7.9
45112;PMS5003;30873;53.908;27.576;2023-07-24T18:30:21;11.1;10.7;7.3
45112;PMS5003;30873;53.908;27.576;2023-07-24T18:35:45;13.7;11.4;7.6
45112;PMS5003;30873;53.908;27.576;2023-07-24T18:40:45;11.1;9.6;6.4
45112;PMS5003;30873;53.908;27.576;2023-07-24T18:45:07;12.7;11.7;7.7
45112;PMS5003;30873;53.908;27.576;2023-07-24T18:50:07;12.8;12.3;7.7
45112;PMS5003;30873;53.908;27.576;2023-07-24T18:55:07;13;11.7;7.7
45112;PMS5003;30873;53.908;27.576;2023-07-24T19:00:27;13.5;12.1;7.5
45112;PMS5003;30873;53.908;27.576;2023-07-24T19:05:27;15.1;14;9.3
45112;PMS5003;30873;53.908;27.576;2023-07-24T19:11:01;14.5;11.8;8.4
45112;PMS5003;30873;53.908;27.576;2023-07-24T19:15:45;15.5;14.1;9.1
45112;PMS5003;30873;53.908;27.576;2023-07-24T19:21:01;12.7;11.7;7.3
45112;PMS5003;30873;53.908;27.576;2023-07-24T19:25:27;14.9;12.9;8.2
45112;PMS5003;30873;53.908;27.576;2023-07-24T19:30:13;14.9;13;8.5
45112;PMS5003;30873;53.908;27.576;2023-07-24T19:35:27;15.1;13.3;8.9
45112;PMS5003;30873;53.908;27.576;2023-07-24T19:40:27;14.6;12.5;8.2
45112;PMS5003;30873;53.908;27.576;2023-07-24T19:45:13;14.4;13.1;8.5
45112;PMS5003;30873;53.908;27.576;2023-07-24T19:51:01;18.6;16.1;10.3
45112;PMS5003;30873;53.908;27.576;2023-07-24T19:55:29;16.1;14.6;9.5
45112;PMS5003;30873;53.908;27.576;2023-07-24T20:00:07;16.9;15.7;10.2
45112;PMS5003;30873;53.908;27.576;2023-07-24T20:05:27;16.1;14.9;10.1
45112;PMS5003;30873;53.908;27.576;2023-07-24T20:10:43;17.2;15.5;9.8
45112;PMS5003;30873;53.908;27.576;2023-07-24T20:15:21;15.4;13.3;8.8
45112;PMS5003;30873;53.908;27.576;2023-07-24T20:20:29;17.9;15.7;10.2
45112;PMS5003;30873;53.908;27.576;2023-07-24T20:25:27;18.8;17.3;12.1
45112;PMS5003;30873;53.908;27.576;2023-07-24T20:31:01;16.7;15;9.5
45112;PMS5003;30873;53.908;27.576;2023-07-24T20:35:07;18;14.6;9.4
45112;PMS5003;30873;53.908;27.576;2023-07-24T20:40:27;16.7;14.7;9.4
45112;PMS5003;30873;53.908;27.576;2023-07-24T20:45:43;15.9;14.2;8.9
45112;PMS5003;30873;53.908;27.576;2023-07-24T20:50:45;15.8;14;9
45112;PMS5003;30873;53.908;27.576;2023-07-24T20:56:01;15.9;15;9.3
45112;PMS5003;30873;53.908;27.576;2023-07-24T21:01:01;18.4;16.1;11
45112;PMS5003;30873;53.908;27.576;2023-07-24T21:06:01;17.6;15.3;10.3
45112;PMS5003;30873;53.908;27.576;2023-07-24T21:10:13;17.1;15.9;9.9
45112;PMS5003;30873;53.908;27.576;2023-07-24T21:16:01;19.1;17.1;11.6
45112;PMS5003;30873;53.908;27.576;2023-07-24T21:20:43;18.3;16.8;12
45112;PMS5003;30873;53.908;27.576;2023-07-24T21:25:09;18.7;17.2;12.6
45112;PMS5003;30873;53.908;27.576;2023-07-24T21:30:15;21;18.5;13.2
45112;PMS5003;30873;53.908;27.576;2023-07-24T21:35:43;21.5;18.7;13.1
45112;PMS5003;30873;53.908;27.576;2023-07-24T21:40:07;20.4;18.5;13.2
45112;PMS5003;30873;53.908;27.576;2023-07-24T21:45:13;22.8;20.2;12.9
45112;PMS5003;30873;53.908;27.576;2023-07-24T21:51:01;20.7;19.2;13.7
45112;PMS5003;30873;53.908;27.576;2023-07-24T21:55:45;21.9;19.8;13.7
45112;PMS5003;30873;53.908;27.576;2023-07-24T22:01:01;23.5;20.3;13.6
45112;PMS5003;30873;53.908;27.576;2023-07-24T22:06:02;23;20.3;13.4
45112;PMS5003;30873;53.908;27.576;2023-07-24T22:10:42;22.5;20.1;13.6
45112;PMS5003;30873;53.908;27.576;2023-07-24T22:15:20;23.8;21.3;14.2
45112;PMS5003;30873;53.908;27.576;2023-07-24T22:20:13;23.3;21.6;14.2
45112;PMS5003;30873;53.908;27.576;2023-07-24T22:26:02;24.7;22;14
45112;PMS5003;30873;53.908;27.576;2023-07-24T22:30:45;25.3;22.5;14.4
45112;PMS5003;30873;53.908;27.576;2023-07-24T22:40:53;21.2;19.4;12.8
45112;PMS5003;30873;53.908;27.576;2023-07-24T22:46:01;21.7;19.7;12.7
45112;PMS5003;30873;53.908;27.576;2023-07-24T22:50:13;19.6;17.2;11.9
45112;PMS5003;30873;53.908;27.576;2023-07-24T22:55:27;20.7;18.8;12.8
45112;PMS5003;30873;53.908;27.576;2023-07-24T23:00:45;19.3;17;12.2
45112;PMS5003;30873;53.908;27.576;2023-07-24T23:10:25;17.9;15.9;11.6
45112;PMS5003;30873;53.908;27.576;2023-07-24T23:15:21;23.7;22.2;16.3
45112;PMS5003;30873;53.908;27.576;2023-07-24T23:20:11;21.9;19.4;13.4
45112;PMS5003;30873;53.908;27.576;2023-07-24T23:25:44;20.8;17.8;12
45112;PMS5003;30873;53.908;27.576;2023-07-24T23:30:41;19.7;17.5;11.7
45112;PMS5003;30873;53.908;27.576;2023-07-24T23:36:01;20.7;19.6;12.8
45112;PMS5003;30873;53.908;27.576;2023-07-24T23:40:45;21.3;17.7;12.9
45112;PMS5003;30873;53.908;27.576;2023-07-24T23:46:07;23.6;21.1;14.6
45112;PMS5003;30873;53.908;27.576;2023-07-24T23:50:08;23.9;21.1;14
45112;PMS5003;30873;53.908;27.576;2023-07-24T23:56:01;23.7;21.9;15.5
